Time;durP1;ratioP1;P1;durP2;ratioP2;P2;SDS_P1;SDS_P2;PMS_P1;PMS_P2;Temp;Humidity;BMP_temperature;BMP_pressure;BME280_temperature;BME280_humidity;BME280_pressure;Samples;Min_cycle;Max_cycle;Signal;HPM_P1;HPM_P2
2022/02/22 00:00:58;;;;;;;1.4;0.4;;;;;;;;;;;;;
2022/02/22 00:03:27;;;;;;;0.5;0.4;;;;;;;;;;;;;
2022/02/22 00:05:57;;;;;;;0.3;0.3;;;;;;;;;;;;;
2022/02/22 00:08:23;;;;;;;0.5;0.4;;;;;;;;;;;;;
2022/02/22 00:10:51;;;;;;;0.4;0.4;;;;;;;;;;;;;
2022/02/22 00:13:20;;;;;;;0.9;0.4;;;;;;;;;;;;;
2022/02/22 00:15:49;;;;;;;0.4;0.3;;;;;;;;;;;;;
2022/02/22 00:18:17;;;;;;;0.5;0.3;;;;;;;;;;;;;
2022/02/22 00:20:46;;;;;;;0.3;0.3;;;;;;;;;;;;;
2022/02/22 00:23:15;;;;;;;0.8;0.3;;;;;;;;;;;;;
2022/02/22 00:25:44;;;;;;;0.5;0.3;;;;;;;;;;;;;
2022/02/22 00:28:13;;;;;;;0.8;0.5;;;;;;;;;;;;;
2022/02/22 00:30:42;;;;;;;0.6;0.2;;;;;;;;;;;;;
2022/02/22 00:33:11;;;;;;;0.4;0.3;;;;;;;;;;;;;
2022/02/22 00:35:40;;;;;;;1.2;0.5;;;;;;;;;;;;;
2022/02/22 00:38:06;;;;;;;1.7;0.5;;;;;;;;;;;;;
2022/02/22 00:40:35;;;;;;;0.3;0.3;;;;;;;;;;;;;
2022/02/22 00:43:02;;;;;;;1.1;0.4;;;;;;;;;;;;;
2022/02/22 00:45:31;;;;;;;0.9;0.3;;;;;;;;;;;;;
2022/02/22 00:47:57;;;;;;;1.1;0.4;;;;;;;;;;;;;
2022/02/22 00:50:22;;;;;;;1.1;0.7;;;;;;;;;;;;;
2022/02/22 00:52:50;;;;;;;1.3;0.7;;;;;;;;;;;;;
2022/02/22 00:55:15;;;;;;;0.4;0.4;;;;;;;;;;;;;
2022/02/22 00:57:43;;;;;;;1.1;0.8;;;;;;;;;;;;;
2022/02/22 01:00:06;;;;;;;2.2;0.7;;;;;;;;;;;;;
2022/02/22 01:02:33;;;;;;;0.6;0.4;;;;;;;;;;;;;
2022/02/22 01:04:59;;;;;;;0.3;0.3;;;;;;;;;;;;;
2022/02/22 01:07:29;;;;;;;0.8;0.4;;;;;;;;;;;;;
2022/02/22 01:09:57;;;;;;;2.5;1.2;;;;;;;;;;;;;
2022/02/22 01:12:27;;;;;;;1.9;0.6;;;;;;;;;;;;;
2022/02/22 01:14:56;;;;;;;2.5;0.8;;;;;;;;;;;;;
2022/02/22 01:17:21;;;;;;;0.5;0.5;;;;;;;;;;;;;
2022/02/22 01:19:50;;;;;;;0.6;0.5;;;;;;;;;;;;;
2022/02/22 01:22:18;;;;;;;1.5;0.4;;;;;;;;;;;;;
2022/02/22 01:24:44;;;;;;;0.4;0.4;;;;;;;;;;;;;
2022/02/22 01:27:09;;;;;;;1.9;0.6;;;;;;;;;;;;;
2022/02/22 01:29:34;;;;;;;1.3;0.6;;;;;;;;;;;;;
2022/02/22 01:32:00;;;;;;;1.4;0.6;;;;;;;;;;;;;
2022/02/22 01:34:25;;;;;;;0.9;0.7;;;;;;;;;;;;;
2022/02/22 01:36:51;;;;;;;1;0.7;;;;;;;;;;;;;
2022/02/22 01:39:16;;;;;;;1.1;0.8;;;;;;;;;;;;;
2022/02/22 01:41:44;;;;;;;1.6;1;;;;;;;;;;;;;
2022/02/22 01:44:07;;;;;;;3;1.4;;;;;;;;;;;;;
2022/02/22 01:46:34;;;;;;;1.9;1;;;;;;;;;;;;;
2022/02/22 01:48:59;;;;;;;1.5;0.8;;;;;;;;;;;;;
2022/02/22 01:51:24;;;;;;;2.8;1;;;;;;;;;;;;;
2022/02/22 01:53:49;;;;;;;3.7;1.4;;;;;;;;;;;;;
2022/02/22 01:56:16;;;;;;;1.6;0.9;;;;;;;;;;;;;
2022/02/22 01:58:41;;;;;;;3;1.1;;;;;;;;;;;;;
2022/02/22 02:01:08;;;;;;;2.6;1;;;;;;;;;;;;;
2022/02/22 02:03:32;;;;;;;2;0.8;;;;;;;;;;;;;
2022/02/22 02:05:57;;;;;;;2.9;1.3;;;;;;;;;;;;;
2022/02/22 03:09:58;;;;;;;1.7;0.9;;;;;;;;;;;;;
2022/02/22 03:12:23;;;;;;;2.4;0.9;;;;;;;;;;;;;
2022/02/22 03:14:52;;;;;;;1;0.6;;;;;;;;;;;;;
2022/02/22 03:17:16;;;;;;;1.9;0.7;;;;;;;;;;;;;
2022/02/22 03:19:42;;;;;;;0.8;0.6;;;;;;;;;;;;;
2022/02/22 03:22:07;;;;;;;3.5;0.8;;;;;;;;;;;;;
2022/02/22 03:24:33;;;;;;;1.6;0.8;;;;;;;;;;;;;
2022/02/22 03:26:59;;;;;;;0.8;0.6;;;;;;;;;;;;;
2022/02/22 03:29:25;;;;;;;0.8;0.5;;;;;;;;;;;;;
2022/02/22 03:31:50;;;;;;;0.5;0.4;;;;;;;;;;;;;
2022/02/22 03:34:16;;;;;;;2;0.6;;;;;;;;;;;;;
2022/02/22 03:36:41;;;;;;;0.9;0.5;;;;;;;;;;;;;
2022/02/22 03:39:06;;;;;;;1.7;0.6;;;;;;;;;;;;;
2022/02/22 03:41:32;;;;;;;1.2;0.5;;;;;;;;;;;;;
2022/02/22 03:43:58;;;;;;;1.3;0.6;;;;;;;;;;;;;
2022/02/22 03:46:23;;;;;;;1.6;0.7;;;;;;;;;;;;;
2022/02/22 03:48:48;;;;;;;0.7;0.7;;;;;;;;;;;;;
2022/02/22 03:51:14;;;;;;;1.5;0.6;;;;;;;;;;;;;
2022/02/22 03:53:40;;;;;;;0.9;0.4;;;;;;;;;;;;;
2022/02/22 03:56:05;;;;;;;1.1;0.6;;;;;;;;;;;;;
2022/02/22 03:58:31;;;;;;;1.7;0.6;;;;;;;;;;;;;
2022/02/22 04:02:34;;;;;;;1;0.7;;;;;;;3.4;83.44434;937.7605;;;;
2022/02/22 04:05:01;;;;;;;1.4;0.5;;;;;;;3.42;84.17773;937.6849;;;;
2022/02/22 04:07:24;;;;;;;0.7;0.6;;;;;;;3.35;85.27539;937.8923;;;;
2022/02/22 04:09:54;;;;;;;1.2;0.6;;;;;;;3.34;84.18457;937.9086;;;;
2022/02/22 04:12:19;;;;;;;1;0.7;;;;;;;3.3;85.53516;937.8412;;;;
2022/02/22 04:14:49;;;;;;;1.1;0.5;;;;;;;3.34;85.72363;937.8883;;;;
2022/02/22 04:17:19;;;;;;;3.9;0.8;;;;;;;3.49;84.95605;937.9378;;;;
2022/02/22 04:19:48;;;;;;;1.3;0.8;;;;;;;3.47;83.34473;937.9684;;;;
2022/02/22 04:22:23;;;;;;;2.3;0.8;;;;;;;3.5;83.28418;937.913;;;;
2022/02/22 04:24:53;;;;;;;3.2;0.8;;;;;;;3.65;81.1123;937.8664;;;;
2022/02/22 04:27:18;;;;;;;1.1;0.7;;;;;;;3.64;75.0752;937.8677;;;;
2022/02/22 04:29:48;;;;;;;2;0.8;;;;;;;3.72;75.93164;937.8939;;;;
2022/02/22 04:32:17;;;;;;;1.3;0.7;;;;;;;3.72;78.13477;937.9341;;;;
2022/02/22 04:34:49;;;;;;;1.7;0.8;;;;;;;3.7;79.33496;937.8486;;;;
2022/02/22 04:37:17;;;;;;;1.8;0.6;;;;;;;3.82;79.31055;937.9119;;;;
2022/02/22 04:39:45;;;;;;;2.4;0.7;;;;;;;3.79;74.29297;937.8011;;;;
2022/02/22 04:42:10;;;;;;;1.9;0.7;;;;;;;3.62;80.73438;937.7276;;;;
2022/02/22 04:44:40;;;;;;;1.4;0.9;;;;;;;3.67;81.63184;937.6309;;;;
2022/02/22 04:47:05;;;;;;;0.6;0.6;;;;;;;3.47;83.04297;937.6938;;;;
2022/02/22 04:49:33;;;;;;;2.9;0.6;;;;;;;3.24;85.06445;937.4604;;;;
2022/02/22 04:51:59;;;;;;;1.5;0.6;;;;;;;3.33;84.66699;937.5228;;;;
2022/02/22 04:54:29;;;;;;;2.9;0.9;;;;;;;3.27;84.72168;937.7347;;;;
2022/02/22 04:56:54;;;;;;;1.4;0.6;;;;;;;3.22;85.82227;937.6216;;;;
2022/02/22 04:59:26;;;;;;;1.3;0.7;;;;;;;3;87.50586;937.7109;;;;
2022/02/22 05:01:53;;;;;;;2.5;0.7;;;;;;;2.77;87.77148;937.713;;;;
2022/02/22 05:04:22;;;;;;;2.7;0.9;;;;;;;2.83;87.18066;937.733;;;;
2022/02/22 05:06:47;;;;;;;1.7;0.8;;;;;;;2.87;87.37695;937.7108;;;;
2022/02/22 05:09:16;;;;;;;2.4;1;;;;;;;2.88;87.53613;937.848;;;;
2022/02/22 05:11:41;;;;;;;3;1;;;;;;;2.93;86.64844;937.9739;;;;
2022/02/22 05:14:12;;;;;;;1.4;1;;;;;;;3.11;81.76074;938.2845;;;;
2022/02/22 05:16:46;;;;;;;1.4;0.8;;;;;;;3.12;81.97559;938.3644;;;;
2022/02/22 05:19:20;;;;;;;2.6;0.7;;;;;;;3.28;81.47754;938.2085;;;;
2022/02/22 05:21:51;;;;;;;1.6;0.8;;;;;;;3.28;81.29785;938.4406;;;;
2022/02/22 05:24:16;;;;;;;2.4;0.8;;;;;;;3.16;83.24121;938.6161;;;;
2022/02/22 05:26:44;;;;;;;2.8;0.8;;;;;;;3.03;84.94238;938.7081;;;;
2022/02/22 05:29:18;;;;;;;1.9;0.9;;;;;;;3.17;85.03906;938.6836;;;;
2022/02/22 05:31:55;;;;;;;1.5;1;;;;;;;3.16;84.85742;938.6375;;;;
2022/02/22 05:34:21;;;;;;;1.4;0.8;;;;;;;3.32;83.49609;938.6365;;;;
2022/02/22 05:36:59;;;;;;;2.1;0.8;;;;;;;3.28;83.51074;938.6572;;;;
2022/02/22 05:39:24;;;;;;;1.5;0.8;;;;;;;;;;;;;
2022/02/22 05:41:52;;;;;;;2.8;0.9;;;;;;;;;;;;;
2022/02/22 05:44:17;;;;;;;2.6;1.4;;;;;;;;;;;;;
2022/02/22 05:46:44;;;;;;;3.5;1;;;;;;;;;;;;;
2022/02/22 05:49:10;;;;;;;2;1;;;;;;;;;;;;;
2022/02/22 05:51:35;;;;;;;2.1;1;;;;;;;;;;;;;
2022/02/22 05:54:00;;;;;;;2.7;1;;;;;;;;;;;;;
2022/02/22 05:56:26;;;;;;;6.8;4.4;;;;;;;;;;;;;
2022/02/22 05:58:51;;;;;;;3.4;2.1;;;;;;;;;;;;;
2022/02/22 06:01:17;;;;;;;4.8;3.1;;;;;;;;;;;;;
2022/02/22 06:03:42;;;;;;;5.7;4.2;;;;;;;;;;;;;
2022/02/22 06:06:10;;;;;;;2;1;;;;;;;;;;;;;
2022/02/22 06:08:35;;;;;;;12.4;10.2;;;;;;;;;;;;;
2022/02/22 06:11:01;;;;;;;3.4;2.4;;;;;;;;;;;;;
2022/02/22 06:13:27;;;;;;;2;1.1;;;;;;;;;;;;;
2022/02/22 06:16:00;;;;;;;1.5;0.7;;;;;;;;;;;;;
2022/02/22 06:18:31;;;;;;;4.1;3.1;;;;;;;;;;;;;
2022/02/22 06:21:01;;;;;;;3.4;2.5;;;;;;;;;;;;;
2022/02/22 06:23:31;;;;;;;4;1.8;;;;;;;;;;;;;
2022/02/22 06:25:56;;;;;;;1.5;1.1;;;;;;;;;;;;;
2022/02/22 06:28:21;;;;;;;2;1.1;;;;;;;;;;;;;
2022/02/22 06:30:47;;;;;;;2.3;1;;;;;;;;;;;;;
2022/02/22 06:33:15;;;;;;;2.3;1.2;;;;;;;;;;;;;
2022/02/22 06:35:45;;;;;;;2.6;1;;;;;;;;;;;;;
2022/02/22 06:38:10;;;;;;;2.6;0.9;;;;;;;;;;;;;
2022/02/22 06:40:39;;;;;;;4.5;0.9;;;;;;;;;;;;;
2022/02/22 06:43:04;;;;;;;7;2.6;;;;;;;;;;;;;
2022/02/22 06:45:31;;;;;;;26;11.1;;;;;;;;;;;;;
2022/02/22 06:47:56;;;;;;;28.8;13.4;;;;;;;;;;;;;
2022/02/22 06:50:25;;;;;;;1.3;0.8;;;;;;;;;;;;;
2022/02/22 06:52:49;;;;;;;1.5;1;;;;;;;;;;;;;
2022/02/22 06:55:16;;;;;;;1.4;0.8;;;;;;;;;;;;;
2022/02/22 06:57:41;;;;;;;1.3;1;;;;;;;;;;;;;
2022/02/22 07:00:09;;;;;;;1.2;1;;;;;;;;;;;;;
2022/02/22 07:02:34;;;;;;;2.9;1;;;;;;;;;;;;;
2022/02/22 07:05:00;;;;;;;2.2;0.7;;;;;;;;;;;;;
2022/02/22 07:07:25;;;;;;;2;0.8;;;;;;;;;;;;;
2022/02/22 07:09:51;;;;;;;2.2;0.9;;;;;;;;;;;;;
2022/02/22 07:12:16;;;;;;;0.7;0.7;;;;;;;;;;;;;
2022/02/22 07:14:42;;;;;;;1.3;0.8;;;;;;;;;;;;;
2022/02/22 07:17:10;;;;;;;1.3;0.8;;;;;;;;;;;;;
2022/02/22 07:19:35;;;;;;;1.4;1.2;;;;;;;;;;;;;
2022/02/22 07:22:04;;;;;;;3;1;;;;;;;;;;;;;
2022/02/22 07:24:29;;;;;;;3.9;1.3;;;;;;;;;;;;;
2022/02/22 07:26:56;;;;;;;2.4;1.3;;;;;;;;;;;;;
2022/02/22 07:29:21;;;;;;;1.8;1.4;;;;;;;;;;;;;
2022/02/22 07:31:49;;;;;;;3.3;1.3;;;;;;;;;;;;;
2022/02/22 07:34:19;;;;;;;7.3;4.9;;;;;;;;;;;;;
2022/02/22 07:36:45;;;;;;;3.1;1.9;;;;;;;;;;;;;
2022/02/22 07:39:13;;;;;;;4;2.3;;;;;;;;;;;;;
2022/02/22 07:41:43;;;;;;;3.5;1.4;;;;;;;;;;;;;
2022/02/22 07:44:08;;;;;;;1.1;0.9;;;;;;;;;;;;;
2022/02/22 07:46:35;;;;;;;3.9;2.3;;;;;;;;;;;;;
2022/02/22 07:49:00;;;;;;;3.4;1.3;;;;;;;;;;;;;
2022/02/22 07:51:26;;;;;;;3.4;1.9;;;;;;;;;;;;;
2022/02/22 07:53:51;;;;;;;3.7;1.6;;;;;;;;;;;;;
2022/02/22 07:56:17;;;;;;;3.2;1.9;;;;;;;;;;;;;
2022/02/22 07:58:42;;;;;;;3.7;1.9;;;;;;;;;;;;;
2022/02/22 08:01:09;;;;;;;4;2.3;;;;;;;;;;;;;
2022/02/22 08:03:34;;;;;;;2.8;1.5;;;;;;;;;;;;;
2022/02/22 08:58:26;;;;;;;1.9;1.4;;;;;;;8.18;60.77441;942.1428;;;;
2022/02/22 09:01:14;;;;;;;2.1;1.1;;;;;;;9.84;54.53516;942.1328;;;;
2022/02/22 09:04:43;;;;;;;1.8;1.1;;;;;;;12.39;47.10449;942.0839;;;;
2022/02/22 09:14:44;;;;;;;1.8;0.6;;;;;;;15.04;36.04004;941.8148;;;;
2022/02/22 09:17:19;;;;;;;1.6;0.7;;;;;;;13.24;40.17578;941.8981;;;;
2022/02/22 09:20:43;;;;;;;1.1;0.8;;;;;;;14.4;39.37402;941.9821;;;;
2022/02/22 09:23:19;;;;;;;1.6;0.8;;;;;;;12.97;39.15332;942.0276;;;;
2022/02/22 09:25:49;;;;;;;1.6;0.9;;;;;;;12.43;43.88574;942.1205;;;;
2022/02/22 09:28:18;;;;;;;1.2;0.7;;;;;;;11.92;43.62891;942.1907;;;;
2022/02/22 09:30:54;;;;;;;1.7;0.8;;;;;;;11.29;44.22852;942.1049;;;;
2022/02/22 09:33:25;;;;;;;1.4;0.7;;;;;;;10.21;47.87207;942.1978;;;;
2022/02/22 09:35:51;;;;;;;1.5;0.9;;;;;;;10.26;45.74414;942.2356;;;;
2022/02/22 09:38:22;;;;;;;1.7;1;;;;;;;9.75;50.4082;942.2651;;;;
2022/02/22 09:40:50;;;;;;;1.1;0.6;;;;;;;8.55;48.57422;942.3167;;;;
2022/02/22 09:43:18;;;;;;;1.2;0.6;;;;;;;8.71;49.5127;942.3904;;;;
2022/02/22 09:45:43;;;;;;;1.1;0.9;;;;;;;8.21;52.98828;942.6199;;;;
2022/02/22 09:48:15;;;;;;;2.1;1.1;;;;;;;8.41;48.54785;942.634;;;;
2022/02/22 09:50:49;;;;;;;2.2;0.7;;;;;;;8.33;51.20898;942.5617;;;;
2022/02/22 09:53:15;;;;;;;3.4;1;;;;;;;8.51;47.52441;942.4109;;;;
2022/02/22 09:55:41;;;;;;;1.6;0.9;;;;;;;9.86;49.05371;942.3176;;;;
2022/02/22 09:58:06;;;;;;;1.8;1;;;;;;;10.59;44.27148;942.4594;;;;
2022/02/22 10:00:40;;;;;;;1.6;0.7;;;;;;;10.94;45.87305;942.4415;;;;
2022/02/22 10:03:12;;;;;;;1.2;0.9;;;;;;;9.56;45.76074;942.4719;;;;
2022/02/22 10:05:37;;;;;;;1.5;0.7;;;;;;;8.86;48.63281;942.4292;;;;
2022/02/22 10:08:13;;;;;;;2;1.1;;;;;;;9.72;51.09961;942.4221;;;;
2022/02/22 10:10:44;;;;;;;0.9;0.6;;;;;;;9.37;49.78418;942.4146;;;;
2022/02/22 10:13:09;;;;;;;2;1;;;;;;;9.45;48.74414;942.438;;;;
2022/02/22 10:16:00;;;;;;;1.1;0.8;;;;;;;9.36;50.76074;942.4994;;;;
2022/02/22 10:18:24;;;;;;;1.3;0.8;;;;;;;8.77;49.42871;942.5952;;;;
2022/02/22 10:20:52;;;;;;;0.9;0.6;;;;;;;8.13;52.10254;942.5705;;;;
2022/02/22 10:23:22;;;;;;;1.7;0.6;;;;;;;8.32;48.93457;942.5631;;;;
2022/02/22 10:25:49;;;;;;;1.3;0.8;;;;;;;8.41;48.44531;942.6245;;;;
2022/02/22 10:28:12;;;;;;;1.3;0.8;;;;;;;8.63;47.8457;942.7524;;;;
2022/02/22 10:30:43;;;;;;;1.4;0.7;;;;;;;8.45;46.64258;942.7222;;;;
2022/02/22 10:33:04;;;;;;;1.4;0.7;;;;;;;8.39;48.33008;942.6736;;;;
2022/02/22 10:35:37;;;;;;;0.9;0.7;;;;;;;8.41;51.50098;942.8684;;;;
2022/02/22 10:38:11;;;;;;;2.4;1.4;;;;;;;8.86;50.13379;942.9446;;;;
2022/02/22 10:40:40;;;;;;;0.9;0.7;;;;;;;8.66;46.9043;942.9348;;;;
2022/02/22 10:43:04;;;;;;;1.5;0.8;;;;;;;8.45;50.39258;943.2056;;;;
2022/02/22 10:45:29;;;;;;;1;0.7;;;;;;;8.25;52.1748;943.1055;;;;
2022/02/22 10:47:59;;;;;;;0.7;0.7;;;;;;;9.13;54.92285;943.1069;;;;
2022/02/22 10:50:32;;;;;;;1.8;0.9;;;;;;;9.81;52.44434;943.1052;;;;
2022/02/22 10:52:56;;;;;;;1.5;0.9;;;;;;;10.21;54.21484;943.0641;;;;
2022/02/22 10:55:21;;;;;;;1;0.6;;;;;;;9.87;52.87402;942.9796;;;;
2022/02/22 10:57:49;;;;;;;1.7;0.7;;;;;;;9.58;56.88184;942.954;;;;
2022/02/22 11:00:14;;;;;;;1.2;0.7;;;;;;;10.2;52.84473;942.9678;;;;
2022/02/22 11:02:42;;;;;;;2;0.6;;;;;;;9.74;53.3584;942.9432;;;;
2022/02/22 11:05:14;;;;;;;3;0.7;;;;;;;8.9;56.25781;942.9941;;;;
2022/02/22 11:07:42;;;;;;;2.3;0.7;;;;;;;8.72;57.95215;942.9816;;;;
2022/02/22 11:10:07;;;;;;;1.3;0.7;;;;;;;8.74;55.78125;942.8652;;;;
2022/02/22 11:12:33;;;;;;;1.2;0.6;;;;;;;9.07;56.40527;942.6573;;;;
2022/02/22 11:15:02;;;;;;;1.2;0.7;;;;;;;10.01;49.65137;942.6484;;;;
2022/02/22 11:17:31;;;;;;;2;0.8;;;;;;;10.12;48.5918;942.6781;;;;
2022/02/22 11:20:03;;;;;;;2.8;0.8;;;;;;;9.53;50.70117;942.7202;;;;
2022/02/22 11:22:30;;;;;;;0.5;0.5;;;;;;;8.33;48.05078;942.8823;;;;
2022/02/22 11:25:02;;;;;;;1;0.5;;;;;;;7.28;53.63184;942.9869;;;;
2022/02/22 11:27:29;;;;;;;1.3;0.8;;;;;;;7.31;58.06738;943.1763;;;;
2022/02/22 11:29:59;;;;;;;0.6;0.4;;;;;;;6.4;62.3877;943.2645;;;;
2022/02/22 11:32:30;;;;;;;0.7;0.6;;;;;;;6.25;65.14844;943.3807;;;;
2022/02/22 11:35:05;;;;;;;1;0.7;;;;;;;7.1;65.07227;943.2925;;;;
2022/02/22 11:37:33;;;;;;;1.6;1;;;;;;;8.53;61.15332;943.0925;;;;
2022/02/22 11:40:06;;;;;;;1.7;0.8;;;;;;;10.26;55.25977;943.1222;;;;
2022/02/22 11:42:36;;;;;;;0.5;0.5;;;;;;;12.49;48.29688;943.0022;;;;
2022/02/22 11:45:11;;;;;;;0.8;0.5;;;;;;;12.7;46.58691;942.9964;;;;
2022/02/22 11:47:37;;;;;;;3.2;0.7;;;;;;;14.49;41.92871;942.8538;;;;
2022/02/22 11:50:03;;;;;;;3;0.8;;;;;;;13.92;44.83105;942.7365;;;;
2022/02/22 11:52:27;;;;;;;1.8;0.6;;;;;;;13.7;43.2793;942.5952;;;;
2022/02/22 11:54:54;;;;;;;0.9;0.7;;;;;;;14.99;42.55371;942.6767;;;;
2022/02/22 11:57:21;;;;;;;1.8;0.6;;;;;;;15.27;40.92969;942.5598;;;;
2022/02/22 11:59:45;;;;;;;2.1;0.6;;;;;;;15.6;40.4873;942.6063;;;;
2022/02/22 12:02:17;;;;;;;4.2;0.9;;;;;;;16.31;38.95605;942.5231;;;;
2022/02/22 12:04:42;;;;;;;1.3;0.6;;;;;;;15.57;35.85156;942.4102;;;;
2022/02/22 12:07:15;;;;;;;14.3;1.7;;;;;;;14.26;36.42383;942.3272;;;;
2022/02/22 12:09:40;;;;;;;0.9;0.6;;;;;;;13.16;38.80273;942.4336;;;;
2022/02/22 12:12:05;;;;;;;3.3;0.7;;;;;;;11.88;41.50586;942.4202;;;;
2022/02/22 12:14:30;;;;;;;1.7;0.9;;;;;;;11.29;43.46289;942.2994;;;;
2022/02/22 12:16:57;;;;;;;3.7;0.7;;;;;;;12.33;40.80371;942.3773;;;;
2022/02/22 12:19:27;;;;;;;1;0.7;;;;;;;12.31;39.5752;942.2286;;;;
2022/02/22 12:21:53;;;;;;;3;0.9;;;;;;;14.88;37.15625;942.1219;;;;
2022/02/22 12:24:19;;;;;;;0.4;0.4;;;;;;;15.42;34.46582;942.0944;;;;
2022/02/22 12:26:44;;;;;;;2;0.6;;;;;;;15.31;34.49121;941.9595;;;;
2022/02/22 12:29:17;;;;;;;3.6;0.6;;;;;;;14.56;37.5332;942.1599;;;;
2022/02/22 12:31:42;;;;;;;0.7;0.5;;;;;;;14.48;35.46387;941.9698;;;;
2022/02/22 12:34:16;;;;;;;0.9;0.6;;;;;;;14.26;35.80273;942.0259;;;;
2022/02/22 12:36:44;;;;;;;3.9;1.2;;;;;;;12.94;39.08105;942.0562;;;;
2022/02/22 12:39:18;;;;;;;2.1;0.6;;;;;;;11.25;40.34766;941.9673;;;;
2022/02/22 12:41:47;;;;;;;1.6;0.5;;;;;;;10.18;43.35059;942.0386;;;;
2022/02/22 12:44:17;;;;;;;1.4;0.5;;;;;;;9.24;45.99902;942.0804;;;;
2022/02/22 12:46:42;;;;;;;2.1;0.5;;;;;;;10.68;43.66504;942.1298;;;;
2022/02/22 12:49:13;;;;;;;0.5;0.5;;;;;;;11.36;42.14258;942.0834;;;;
2022/02/22 12:51:45;;;;;;;3.6;0.8;;;;;;;13.24;38.09766;941.9925;;;;
2022/02/22 12:54:09;;;;;;;1.9;0.5;;;;;;;14.05;36.23438;941.8932;;;;
2022/02/22 12:56:41;;;;;;;2;0.8;;;;;;;13.04;38.14844;941.9476;;;;
2022/02/22 12:59:06;;;;;;;0.6;0.5;;;;;;;13;38.82324;941.9119;;;;
2022/02/22 13:01:35;;;;;;;3;0.9;;;;;;;13.15;38.38867;941.9618;;;;
2022/02/22 13:04:05;;;;;;;5.9;0.9;;;;;;;13.11;39.42969;942.0048;;;;
2022/02/22 13:06:38;;;;;;;5.5;1;;;;;;;13.75;38.06152;941.9511;;;;
2022/02/22 13:09:03;;;;;;;1.7;0.8;;;;;;;14.93;35.43164;941.967;;;;
2022/02/22 13:11:29;;;;;;;1.7;0.9;;;;;;;13.27;38.66211;942.003;;;;
2022/02/22 13:14:02;;;;;;;0.9;0.5;;;;;;;11.84;40.83691;942.0192;;;;
2022/02/22 13:16:36;;;;;;;2.8;0.6;;;;;;;12.67;39.58496;941.935;;;;
2022/02/22 13:19:02;;;;;;;0.9;0.4;;;;;;;12.73;38.82227;941.9722;;;;
2022/02/22 13:21:31;;;;;;;2.4;1;;;;;;;12.79;39.42383;941.9582;;;;
2022/02/22 13:24:05;;;;;;;1;0.7;;;;;;;14.21;36.53516;941.8719;;;;
2022/02/22 13:26:29;;;;;;;1.3;0.5;;;;;;;14.51;35.88086;941.8128;;;;
2022/02/22 13:29:03;;;;;;;1.8;0.6;;;;;;;15.23;34.6709;941.7352;;;;
2022/02/22 13:31:37;;;;;;;1.5;0.6;;;;;;;12.08;39.26758;941.7664;;;;
2022/02/22 13:34:04;;;;;;;1.9;0.7;;;;;;;11.36;41.98242;941.7645;;;;
2022/02/22 13:36:35;;;;;;;2.8;0.8;;;;;;;11.03;41.65234;941.8373;;;;
2022/02/22 13:39:07;;;;;;;1.4;0.6;;;;;;;10.27;43.39453;941.9341;;;;
2022/02/22 13:41:39;;;;;;;5.2;1.1;;;;;;;10.49;43.49609;941.9689;;;;
2022/02/22 13:44:06;;;;;;;2.2;0.5;;;;;;;10.01;43.44922;941.8616;;;;
2022/02/22 13:46:31;;;;;;;2.1;0.7;;;;;;;10.24;44.81738;941.9965;;;;
2022/02/22 13:49:01;;;;;;;3.4;1;;;;;;;9.61;45.35645;941.9807;;;;
2022/02/22 13:51:26;;;;;;;1.3;0.5;;;;;;;9.87;43.72949;941.8906;;;;
2022/02/22 13:53:52;;;;;;;3.8;1.1;;;;;;;9.42;44.9707;942.0056;;;;
2022/02/22 13:56:19;;;;;;;1.4;0.5;;;;;;;9.84;44.44629;941.9609;;;;
2022/02/22 13:58:44;;;;;;;5.4;0.7;;;;;;;10.32;43.25098;941.9962;;;;
2022/02/22 14:01:13;;;;;;;0.7;0.5;;;;;;;10.76;42.90625;942.1039;;;;
2022/02/22 14:03:42;;;;;;;2.2;0.6;;;;;;;10.32;43.96973;942.0695;;;;
2022/02/22 14:06:16;;;;;;;2.7;0.7;;;;;;;9.94;43.23633;942.0724;;;;
2022/02/22 14:08:41;;;;;;;2;0.6;;;;;;;9.69;43.79102;942.0754;;;;
2022/02/22 14:11:13;;;;;;;2.3;0.9;;;;;;;10.73;44.7998;942.019;;;;
2022/02/22 14:13:45;;;;;;;2.1;0.7;;;;;;;10.7;42.10156;941.9533;;;;
2022/02/22 14:16:20;;;;;;;1.5;0.5;;;;;;;10.72;42.95898;942.0324;;;;
2022/02/22 14:18:49;;;;;;;5.6;1.1;;;;;;;10.66;40.53223;941.944;;;;
2022/02/22 14:21:20;;;;;;;0.7;0.5;;;;;;;10.17;43.30469;941.8173;;;;
2022/02/22 14:23:53;;;;;;;1.9;0.6;;;;;;;9.97;42.94141;941.7372;;;;
2022/02/22 14:26:20;;;;;;;1.2;0.6;;;;;;;10.29;42.28906;941.7553;;;;
2022/02/22 14:28:53;;;;;;;3.6;0.9;;;;;;;10.4;42.90625;941.7946;;;;
2022/02/22 14:31:21;;;;;;;1.6;0.7;;;;;;;9.94;42.81348;941.6802;;;;
2022/02/22 14:33:46;;;;;;;1.6;0.7;;;;;;;9.67;43.52734;941.6322;;;;
2022/02/22 14:36:13;;;;;;;1.9;0.7;;;;;;;9.75;44.36719;941.6505;;;;
2022/02/22 14:38:40;;;;;;;1.2;0.7;;;;;;;9.41;44.04883;941.7827;;;;
2022/02/22 14:41:05;;;;;;;2.9;0.9;;;;;;;10.03;42.21777;941.7211;;;;
2022/02/22 14:43:33;;;;;;;6.3;1.1;;;;;;;10.83;42.74121;941.7252;;;;
2022/02/22 14:45:58;;;;;;;2;0.9;;;;;;;10;43.82324;941.7307;;;;
2022/02/22 14:48:27;;;;;;;1.2;0.6;;;;;;;10.38;41.46484;941.7918;;;;
2022/02/22 14:50:59;;;;;;;3;0.9;;;;;;;10.47;41.99902;941.7131;;;;
2022/02/22 14:53:23;;;;;;;1.8;0.6;;;;;;;10.23;41.97559;941.7767;;;;
2022/02/22 14:55:57;;;;;;;2.2;0.6;;;;;;;10.52;42.81445;941.7751;;;;
2022/02/22 14:58:27;;;;;;;1.7;0.6;;;;;;;10.01;42.2041;941.9861;;;;
2022/02/22 15:00:54;;;;;;;1.2;1;;;;;;;10.92;41.52734;941.9065;;;;
2022/02/22 15:03:19;;;;;;;3.4;1.4;;;;;;;11.57;39.03906;941.8414;;;;
2022/02/22 15:05:51;;;;;;;10.1;6.9;;;;;;;10.95;39.94238;941.915;;;;
2022/02/22 15:08:21;;;;;;;6.1;3.4;;;;;;;10.62;43.11035;941.8096;;;;
2022/02/22 15:11:00;;;;;;;6.5;4;;;;;;;10.66;40.41797;941.8206;;;;
2022/02/22 15:13:23;;;;;;;7.6;1.6;;;;;;;10.64;40.23438;941.8147;;;;
2022/02/22 15:16:02;;;;;;;3.2;2.9;;;;;;;10.53;40.38379;941.9433;;;;
2022/02/22 15:18:29;;;;;;;2;1;;;;;;;10.14;41.25879;941.9225;;;;
2022/02/22 15:21:00;;;;;;;3.4;2.8;;;;;;;10.03;42.56152;941.9113;;;;
2022/02/22 15:23:32;;;;;;;1.1;0.7;;;;;;;9.3;42.53418;941.9641;;;;
2022/02/22 15:25:57;;;;;;;1.6;0.7;;;;;;;9.25;43.21094;941.9256;;;;
2022/02/22 15:28:27;;;;;;;2.1;0.7;;;;;;;9.1;43.10645;941.9169;;;;
2022/02/22 15:30:52;;;;;;;3.2;1;;;;;;;8.8;43.07617;942.1075;;;;
2022/02/22 15:33:18;;;;;;;1.2;0.5;;;;;;;8.86;44.9707;942.0234;;;;
2022/02/22 15:35:45;;;;;;;2.6;1.1;;;;;;;8.85;44.04785;941.8978;;;;
2022/02/22 15:38:10;;;;;;;3.9;0.9;;;;;;;8.96;43.49023;941.9741;;;;
2022/02/22 15:40:40;;;;;;;1.3;0.7;;;;;;;9.02;44.31641;941.8914;;;;
2022/02/22 15:43:08;;;;;;;5.6;1.1;;;;;;;8.87;43.70898;941.8315;;;;
2022/02/22 15:45:33;;;;;;;4.9;0.7;;;;;;;8.92;43.71484;941.7372;;;;
2022/02/22 15:48:02;;;;;;;1;0.7;;;;;;;8.96;43.96777;941.6617;;;;
2022/02/22 15:50:26;;;;;;;3.5;0.9;;;;;;;9.02;44.32617;941.5226;;;;
2022/02/22 15:52:54;;;;;;;2.2;0.8;;;;;;;9.04;43.7373;941.532;;;;
2022/02/22 15:55:26;;;;;;;1.7;0.8;;;;;;;8.94;43.47656;941.5622;;;;
2022/02/22 15:57:55;;;;;;;1.7;0.6;;;;;;;8.81;43.88379;941.5129;;;;
2022/02/22 16:00:24;;;;;;;2.9;0.9;;;;;;;8.65;44.52734;941.3801;;;;
2022/02/22 16:02:54;;;;;;;3.9;1.2;;;;;;;8.66;44.51758;941.4742;;;;
2022/02/22 16:05:27;;;;;;;6.3;1.1;;;;;;;8.66;44.6543;941.5115;;;;
2022/02/22 16:07:53;;;;;;;2;1;;;;;;;8.64;45.33398;941.2745;;;;
2022/02/22 16:10:27;;;;;;;6.5;1.3;;;;;;;8.74;45.69629;941.2503;;;;
2022/02/22 16:12:55;;;;;;;2.3;0.8;;;;;;;8.78;45.33594;941.1479;;;;
2022/02/22 16:15:30;;;;;;;1.5;0.7;;;;;;;8.62;45.50195;941.1462;;;;
2022/02/22 16:18:03;;;;;;;1.4;0.9;;;;;;;8.65;42.7998;941.0049;;;;
2022/02/22 16:20:34;;;;;;;1.8;0.8;;;;;;;8.41;45.32031;941.0958;;;;
2022/02/22 16:23:04;;;;;;;2.6;0.7;;;;;;;8.53;45.69727;941.0305;;;;
2022/02/22 16:25:33;;;;;;;1.3;0.8;;;;;;;8.52;45.23047;941.0463;;;;
2022/02/22 16:28:03;;;;;;;2.7;1;;;;;;;8.54;44.50488;941.1021;;;;
2022/02/22 16:30:35;;;;;;;1.7;0.8;;;;;;;8.56;44.05273;941.0875;;;;
2022/02/22 16:33:03;;;;;;;2.8;1.5;;;;;;;8.62;42.97852;941.0708;;;;
2022/02/22 16:35:36;;;;;;;7.8;0.9;;;;;;;8.44;43.66602;940.9422;;;;
2022/02/22 16:38:01;;;;;;;1.9;0.6;;;;;;;8.23;43.31445;941.0535;;;;
2022/02/22 16:40:31;;;;;;;2.4;1;;;;;;;8.34;43.18945;941.1023;;;;
2022/02/22 16:42:53;;;;;;;1.1;0.8;;;;;;;8.34;43.85938;940.9698;;;;
2022/02/22 16:45:28;;;;;;;1.5;0.9;;;;;;;8.26;43.9082;941.1453;;;;
2022/02/22 16:47:51;;;;;;;2;0.8;;;;;;;8.26;42.71582;941.1438;;;;
2022/02/22 16:50:18;;;;;;;2.7;0.6;;;;;;;8.44;43.34766;941.177;;;;
2022/02/22 16:52:48;;;;;;;2.8;1;;;;;;;8.29;43.38867;941.139;;;;
2022/02/22 16:55:13;;;;;;;1.5;1;;;;;;;8.2;43.8457;941.1494;;;;
2022/02/22 16:57:43;;;;;;;0.9;0.6;;;;;;;8.3;41.95801;941.2026;;;;
2022/02/22 17:00:08;;;;;;;1.5;0.6;;;;;;;8.42;41.40234;941.3083;;;;
2022/02/22 17:02:33;;;;;;;2.1;0.9;;;;;;;8.47;41.48633;941.2466;;;;
2022/02/22 17:05:02;;;;;;;3.6;1;;;;;;;8.47;41.71289;941.4117;;;;
2022/02/22 17:07:27;;;;;;;2.2;0.8;;;;;;;8.2;40.90332;941.3602;;;;
2022/02/22 17:09:57;;;;;;;2.5;1.3;;;;;;;8.28;41.19629;941.3792;;;;
2022/02/22 17:12:24;;;;;;;2.3;1.4;;;;;;;8.28;42.25098;941.3139;;;;
2022/02/22 17:14:48;;;;;;;4;2.3;;;;;;;8.42;42.20898;941.4042;;;;
2022/02/22 17:17:16;;;;;;;3.1;1.7;;;;;;;8.5;43.3418;941.3244;;;;
2022/02/22 17:19:44;;;;;;;8.6;2.7;;;;;;;8.29;45.1709;941.4634;;;;
2022/02/22 17:22:09;;;;;;;6.4;3.2;;;;;;;8.26;43.55566;941.5483;;;;
2022/02/22 17:24:38;;;;;;;3.8;2.1;;;;;;;8.16;44.43164;941.5417;;;;
2022/02/22 17:27:04;;;;;;;3.5;1.7;;;;;;;8.22;43.30176;941.5364;;;;
2022/02/22 17:29:33;;;;;;;3.2;1.3;;;;;;;8.27;45.89648;941.5034;;;;
2022/02/22 17:31:59;;;;;;;2.2;1.1;;;;;;;8.16;40.10547;941.5934;;;;
2022/02/22 17:34:32;;;;;;;2.9;1.3;;;;;;;8.44;40.46094;941.6379;;;;
2022/02/22 17:37:02;;;;;;;3.8;2;;;;;;;8.51;43.00293;941.6247;;;;
2022/02/22 17:39:26;;;;;;;4.2;2.6;;;;;;;8.39;41.93359;941.6429;;;;
2022/02/22 17:41:55;;;;;;;1.7;1.3;;;;;;;8.24;40.71484;941.7908;;;;
2022/02/22 17:44:26;;;;;;;4.4;2.4;;;;;;;8.27;43.10254;941.7358;;;;
2022/02/22 17:46:51;;;;;;;2;0.8;;;;;;;8.16;39.77539;941.6464;;;;
2022/02/22 17:49:16;;;;;;;1.8;0.8;;;;;;;8.23;40.12305;941.7452;;;;
2022/02/22 17:51:46;;;;;;;1.2;0.8;;;;;;;8.17;39.23242;941.6683;;;;
2022/02/22 17:54:14;;;;;;;1.7;1;;;;;;;8.36;39.26074;941.517;;;;
2022/02/22 17:56:39;;;;;;;1.7;1.2;;;;;;;8.52;40.53613;941.6922;;;;
2022/02/22 17:59:08;;;;;;;1.7;0.8;;;;;;;8.13;40.87402;941.6044;;;;
2022/02/22 18:01:39;;;;;;;1.4;0.6;;;;;;;7.95;42.32129;941.6078;;;;
2022/02/22 18:04:08;;;;;;;1.6;0.6;;;;;;;7.94;43.0127;941.6156;;;;
2022/02/22 18:06:38;;;;;;;4.1;1.1;;;;;;;7.77;45.60645;941.6412;;;;
2022/02/22 18:09:03;;;;;;;2.3;0.8;;;;;;;7.67;46.18457;941.6038;;;;
2022/02/22 18:11:30;;;;;;;2.2;0.7;;;;;;;7.77;47.03516;941.5684;;;;
2022/02/22 18:13:58;;;;;;;5.8;2.3;;;;;;;7.61;46.43848;941.5848;;;;
2022/02/22 18:16:35;;;;;;;3.9;1;;;;;;;7.65;45.59277;941.4922;;;;
2022/02/22 18:19:00;;;;;;;1.3;0.7;;;;;;;7.72;45.67969;941.4663;;;;
2022/02/22 18:21:26;;;;;;;4.1;1.5;;;;;;;7.5;45.9502;941.3971;;;;
2022/02/22 18:23:58;;;;;;;2.3;1.7;;;;;;;7.59;46.2666;941.2988;;;;